sensor_id;sensor_type;location;lat;lon;timestamp;P1;durP1;ratioP1;P2;durP2;ratioP2
79566;SDS011;69030;48.126;7.816;2024-03-29T00:00:42;3.38;;;0.77;;
79566;SDS011;69030;48.126;7.816;2024-03-29T00:03:09;3.80;;;1.25;;
79566;SDS011;69030;48.126;7.816;2024-03-29T00:05:35;3.25;;;0.70;;
79566;SDS011;69030;48.126;7.816;2024-03-29T00:08:04;3.28;;;1.45;;
79566;SDS011;69030;48.126;7.816;2024-03-29T00:10:30;2.40;;;1.02;;
79566;SDS011;69030;48.126;7.816;2024-03-29T00:12:56;1.90;;;0.70;;
79566;SDS011;69030;48.126;7.816;2024-03-29T00:15:21;2.05;;;0.80;;
79566;SDS011;69030;48.126;7.816;2024-03-29T00:17:47;6.60;;;0.80;;
79566;SDS011;69030;48.126;7.816;2024-03-29T00:20:12;1.73;;;0.70;;
79566;SDS011;69030;48.126;7.816;2024-03-29T00:22:37;3.08;;;0.40;;
79566;SDS011;69030;48.126;7.816;2024-03-29T00:25:06;2.30;;;0.70;;
79566;SDS011;69030;48.126;7.816;2024-03-29T00:27:34;2.13;;;0.73;;
79566;SDS011;69030;48.126;7.816;2024-03-29T00:30:02;3.45;;;1.77;;
79566;SDS011;69030;48.126;7.816;2024-03-29T00:32:31;1.90;;;0.80;;
79566;SDS011;69030;48.126;7.816;2024-03-29T00:34:56;2.33;;;0.43;;
79566;SDS011;69030;48.126;7.816;2024-03-29T00:37:23;1.95;;;0.50;;
79566;SDS011;69030;48.126;7.816;2024-03-29T00:39:48;1.73;;;1.52;;
79566;SDS011;69030;48.126;7.816;2024-03-29T00:42:14;2.08;;;0.50;;
79566;SDS011;69030;48.126;7.816;2024-03-29T00:44:46;1.35;;;0.88;;
79566;SDS011;69030;48.126;7.816;2024-03-29T00:47:11;1.65;;;0.52;;
79566;SDS011;69030;48.126;7.816;2024-03-29T00:49:38;1.50;;;0.90;;
79566;SDS011;69030;48.126;7.816;2024-03-29T00:52:03;1.95;;;0.88;;
79566;SDS011;69030;48.126;7.816;2024-03-29T00:54:29;1.50;;;0.40;;
79566;SDS011;69030;48.126;7.816;2024-03-29T00:56:55;1.92;;;0.52;;
79566;SDS011;69030;48.126;7.816;2024-03-29T00:59:20;1.20;;;0.32;;
79566;SDS011;69030;48.126;7.816;2024-03-29T01:01:46;0.88;;;0.40;;
79566;SDS011;69030;48.126;7.816;2024-03-29T01:04:12;2.22;;;0.47;;
79566;SDS011;69030;48.126;7.816;2024-03-29T01:06:38;0.75;;;0.57;;
79566;SDS011;69030;48.126;7.816;2024-03-29T01:09:05;0.93;;;0.63;;
79566;SDS011;69030;48.126;7.816;2024-03-29T01:11:31;0.95;;;0.35;;
79566;SDS011;69030;48.126;7.816;2024-03-29T01:13:56;0.50;;;0.20;;
79566;SDS011;69030;48.126;7.816;2024-03-29T01:16:22;3.00;;;0.50;;
79566;SDS011;69030;48.126;7.816;2024-03-29T01:21:28;1.20;;;0.88;;
79566;SDS011;69030;48.126;7.816;2024-03-29T01:23:53;1.30;;;0.30;;
79566;SDS011;69030;48.126;7.816;2024-03-29T01:26:19;0.80;;;0.10;;
79566;SDS011;69030;48.126;7.816;2024-03-29T01:28:44;1.70;;;0.40;;
79566;SDS011;69030;48.126;7.816;2024-03-29T01:31:10;0.85;;;0.52;;
79566;SDS011;69030;48.126;7.816;2024-03-29T01:33:37;2.15;;;0.45;;
79566;SDS011;69030;48.126;7.816;2024-03-29T01:36:03;0.90;;;0.40;;
79566;SDS011;69030;48.126;7.816;2024-03-29T01:38:29;0.75;;;0.45;;
79566;SDS011;69030;48.126;7.816;2024-03-29T01:40:55;0.73;;;0.30;;
79566;SDS011;69030;48.126;7.816;2024-03-29T01:43:20;1.70;;;0.55;;
79566;SDS011;69030;48.126;7.816;2024-03-29T01:45:46;0.60;;;0.38;;
79566;SDS011;69030;48.126;7.816;2024-03-29T01:48:14;3.17;;;0.45;;
79566;SDS011;69030;48.126;7.816;2024-03-29T01:50:40;0.65;;;0.50;;
79566;SDS011;69030;48.126;7.816;2024-03-29T01:53:07;1.38;;;0.30;;
79566;SDS011;69030;48.126;7.816;2024-03-29T01:55:33;1.05;;;1.05;;
79566;SDS011;69030;48.126;7.816;2024-03-29T01:58:00;1.67;;;0.47;;
79566;SDS011;69030;48.126;7.816;2024-03-29T02:00:27;1.23;;;0.65;;
79566;SDS011;69030;48.126;7.816;2024-03-29T02:02:54;0.52;;;0.43;;
79566;SDS011;69030;48.126;7.816;2024-03-29T02:05:20;0.52;;;0.30;;
79566;SDS011;69030;48.126;7.816;2024-03-29T02:07:46;1.55;;;0.70;;
79566;SDS011;69030;48.126;7.816;2024-03-29T02:10:13;1.23;;;0.60;;
79566;SDS011;69030;48.126;7.816;2024-03-29T02:12:39;1.50;;;0.30;;
79566;SDS011;69030;48.126;7.816;2024-03-29T02:15:04;1.60;;;0.88;;
79566;SDS011;69030;48.126;7.816;2024-03-29T02:17:31;0.98;;;0.35;;
79566;SDS011;69030;48.126;7.816;2024-03-29T02:19:57;1.23;;;0.88;;
79566;SDS011;69030;48.126;7.816;2024-03-29T02:22:22;1.85;;;0.50;;
79566;SDS011;69030;48.126;7.816;2024-03-29T02:24:49;3.83;;;0.60;;
79566;SDS011;69030;48.126;7.816;2024-03-29T02:27:16;2.90;;;1.02;;
79566;SDS011;69030;48.126;7.816;2024-03-29T02:29:41;2.40;;;0.60;;
79566;SDS011;69030;48.126;7.816;2024-03-29T02:32:07;3.20;;;2.33;;
79566;SDS011;69030;48.126;7.816;2024-03-29T02:34:32;2.00;;;0.73;;
79566;SDS011;69030;48.126;7.816;2024-03-29T02:36:58;1.52;;;0.80;;
79566;SDS011;69030;48.126;7.816;2024-03-29T02:39:24;5.22;;;0.50;;
79566;SDS011;69030;48.126;7.816;2024-03-29T02:41:49;1.25;;;0.50;;
79566;SDS011;69030;48.126;7.816;2024-03-29T02:44:15;2.75;;;1.13;;
79566;SDS011;69030;48.126;7.816;2024-03-29T02:46:41;3.13;;;0.75;;
79566;SDS011;69030;48.126;7.816;2024-03-29T02:49:07;2.10;;;1.00;;
79566;SDS011;69030;48.126;7.816;2024-03-29T02:51:32;1.00;;;0.38;;
79566;SDS011;69030;48.126;7.816;2024-03-29T02:53:58;3.33;;;0.77;;
79566;SDS011;69030;48.126;7.816;2024-03-29T02:56:24;1.98;;;0.73;;
79566;SDS011;69030;48.126;7.816;2024-03-29T02:58:51;3.17;;;1.58;;
79566;SDS011;69030;48.126;7.816;2024-03-29T03:01:16;1.63;;;0.55;;
79566;SDS011;69030;48.126;7.816;2024-03-29T03:03:42;1.85;;;0.73;;
79566;SDS011;69030;48.126;7.816;2024-03-29T03:06:07;1.00;;;0.45;;
79566;SDS011;69030;48.126;7.816;2024-03-29T03:08:32;1.85;;;0.60;;
79566;SDS011;69030;48.126;7.816;2024-03-29T03:11:16;4.47;;;0.70;;
79566;SDS011;69030;48.126;7.816;2024-03-29T03:13:42;2.17;;;0.90;;
79566;SDS011;69030;48.126;7.816;2024-03-29T03:16:07;2.40;;;0.95;;
79566;SDS011;69030;48.126;7.816;2024-03-29T03:18:33;1.77;;;0.63;;
79566;SDS011;69030;48.126;7.816;2024-03-29T03:20:58;1.88;;;0.85;;
79566;SDS011;69030;48.126;7.816;2024-03-29T03:23:24;2.17;;;0.90;;
79566;SDS011;69030;48.126;7.816;2024-03-29T03:25:56;2.08;;;0.73;;
79566;SDS011;69030;48.126;7.816;2024-03-29T03:30:50;3.13;;;0.98;;
79566;SDS011;69030;48.126;7.816;2024-03-29T03:33:16;3.53;;;2.90;;
79566;SDS011;69030;48.126;7.816;2024-03-29T03:35:55;2.08;;;1.13;;
79566;SDS011;69030;48.126;7.816;2024-03-29T03:38:21;3.20;;;1.58;;
79566;SDS011;69030;48.126;7.816;2024-03-29T03:40:46;2.67;;;1.00;;
79566;SDS011;69030;48.126;7.816;2024-03-29T03:43:11;3.15;;;1.55;;
79566;SDS011;69030;48.126;7.816;2024-03-29T03:45:37;4.47;;;1.02;;
79566;SDS011;69030;48.126;7.816;2024-03-29T03:48:04;2.13;;;0.52;;
79566;SDS011;69030;48.126;7.816;2024-03-29T03:50:31;3.92;;;2.33;;
79566;SDS011;69030;48.126;7.816;2024-03-29T03:52:56;4.32;;;1.17;;
79566;SDS011;69030;48.126;7.816;2024-03-29T03:55:22;2.83;;;1.00;;
79566;SDS011;69030;48.126;7.816;2024-03-29T03:57:48;1.85;;;0.77;;
79566;SDS011;69030;48.126;7.816;2024-03-29T04:00:13;2.25;;;1.02;;
79566;SDS011;69030;48.126;7.816;2024-03-29T04:02:39;1.98;;;0.50;;
79566;SDS011;69030;48.126;7.816;2024-03-29T04:05:04;2.83;;;0.75;;
79566;SDS011;69030;48.126;7.816;2024-03-29T04:07:31;2.97;;;1.02;;
79566;SDS011;69030;48.126;7.816;2024-03-29T04:09:56;2.10;;;0.98;;
79566;SDS011;69030;48.126;7.816;2024-03-29T04:12:22;1.45;;;0.85;;
79566;SDS011;69030;48.126;7.816;2024-03-29T04:14:48;1.88;;;0.65;;
79566;SDS011;69030;48.126;7.816;2024-03-29T04:17:13;3.95;;;1.10;;
79566;SDS011;69030;48.126;7.816;2024-03-29T04:19:39;2.78;;;1.15;;
79566;SDS011;69030;48.126;7.816;2024-03-29T04:22:04;2.70;;;2.50;;
79566;SDS011;69030;48.126;7.816;2024-03-29T04:24:30;1.60;;;1.00;;
79566;SDS011;69030;48.126;7.816;2024-03-29T04:26:56;1.25;;;1.00;;
79566;SDS011;69030;48.126;7.816;2024-03-29T04:29:21;2.38;;;0.95;;
79566;SDS011;69030;48.126;7.816;2024-03-29T04:31:47;2.50;;;1.00;;
79566;SDS011;69030;48.126;7.816;2024-03-29T04:34:12;3.55;;;0.63;;
79566;SDS011;69030;48.126;7.816;2024-03-29T04:36:38;4.55;;;1.38;;
79566;SDS011;69030;48.126;7.816;2024-03-29T04:39:06;2.03;;;0.80;;
79566;SDS011;69030;48.126;7.816;2024-03-29T04:41:32;3.22;;;0.68;;
79566;SDS011;69030;48.126;7.816;2024-03-29T04:44:02;5.63;;;0.90;;
79566;SDS011;69030;48.126;7.816;2024-03-29T04:46:29;2.72;;;0.95;;
79566;SDS011;69030;48.126;7.816;2024-03-29T04:48:55;3.47;;;1.02;;
79566;SDS011;69030;48.126;7.816;2024-03-29T04:51:20;3.63;;;0.90;;
79566;SDS011;69030;48.126;7.816;2024-03-29T04:53:46;2.58;;;0.90;;
79566;SDS011;69030;48.126;7.816;2024-03-29T04:56:11;3.47;;;2.55;;
79566;SDS011;69030;48.126;7.816;2024-03-29T04:58:37;2.47;;;1.63;;
79566;SDS011;69030;48.126;7.816;2024-03-29T05:01:02;4.53;;;1.40;;
79566;SDS011;69030;48.126;7.816;2024-03-29T05:03:28;2.75;;;1.25;;
79566;SDS011;69030;48.126;7.816;2024-03-29T05:05:53;5.00;;;0.90;;
79566;SDS011;69030;48.126;7.816;2024-03-29T05:08:19;5.40;;;1.00;;
79566;SDS011;69030;48.126;7.816;2024-03-29T05:10:46;1.85;;;0.98;;
79566;SDS011;69030;48.126;7.816;2024-03-29T05:13:12;2.88;;;1.25;;
79566;SDS011;69030;48.126;7.816;2024-03-29T05:15:37;2.55;;;0.77;;
79566;SDS011;69030;48.126;7.816;2024-03-29T05:18:03;2.75;;;0.95;;
79566;SDS011;69030;48.126;7.816;2024-03-29T05:20:29;5.18;;;1.05;;
79566;SDS011;69030;48.126;7.816;2024-03-29T05:22:55;1.42;;;0.73;;
79566;SDS011;69030;48.126;7.816;2024-03-29T05:25:22;2.90;;;1.10;;
79566;SDS011;69030;48.126;7.816;2024-03-29T05:27:48;1.52;;;0.88;;
79566;SDS011;69030;48.126;7.816;2024-03-29T05:30:14;2.17;;;1.00;;
79566;SDS011;69030;48.126;7.816;2024-03-29T05:32:39;3.60;;;1.73;;
79566;SDS011;69030;48.126;7.816;2024-03-29T05:35:05;3.40;;;1.48;;
79566;SDS011;69030;48.126;7.816;2024-03-29T05:37:30;2.75;;;1.05;;
79566;SDS011;69030;48.126;7.816;2024-03-29T05:39:56;3.08;;;0.80;;
79566;SDS011;69030;48.126;7.816;2024-03-29T05:42:28;2.42;;;1.20;;
79566;SDS011;69030;48.126;7.816;2024-03-29T05:44:54;7.15;;;0.95;;
79566;SDS011;69030;48.126;7.816;2024-03-29T05:47:20;2.55;;;1.10;;
79566;SDS011;69030;48.126;7.816;2024-03-29T05:49:45;3.30;;;1.67;;
79566;SDS011;69030;48.126;7.816;2024-03-29T05:52:11;3.42;;;1.52;;
79566;SDS011;69030;48.126;7.816;2024-03-29T05:54:39;2.03;;;1.23;;
79566;SDS011;69030;48.126;7.816;2024-03-29T05:57:07;2.35;;;0.80;;
79566;SDS011;69030;48.126;7.816;2024-03-29T05:59:33;1.65;;;0.77;;
79566;SDS011;69030;48.126;7.816;2024-03-29T06:01:58;3.17;;;1.42;;
79566;SDS011;69030;48.126;7.816;2024-03-29T06:04:24;6.15;;;1.55;;
79566;SDS011;69030;48.126;7.816;2024-03-29T06:06:57;2.92;;;1.90;;
79566;SDS011;69030;48.126;7.816;2024-03-29T06:09:23;4.72;;;2.35;;
79566;SDS011;69030;48.126;7.816;2024-03-29T06:11:49;4.75;;;1.52;;
79566;SDS011;69030;48.126;7.816;2024-03-29T06:14:15;4.22;;;1.98;;
79566;SDS011;69030;48.126;7.816;2024-03-29T06:16:59;5.60;;;2.17;;
79566;SDS011;69030;48.126;7.816;2024-03-29T06:19:43;4.63;;;1.27;;
79566;SDS011;69030;48.126;7.816;2024-03-29T06:22:08;3.55;;;2.35;;
79566;SDS011;69030;48.126;7.816;2024-03-29T06:24:34;1.60;;;1.15;;
79566;SDS011;69030;48.126;7.816;2024-03-29T06:27:00;2.20;;;1.20;;
79566;SDS011;69030;48.126;7.816;2024-03-29T06:29:25;3.35;;;1.10;;
79566;SDS011;69030;48.126;7.816;2024-03-29T06:31:51;3.83;;;1.38;;
79566;SDS011;69030;48.126;7.816;2024-03-29T06:34:16;3.13;;;1.50;;
79566;SDS011;69030;48.126;7.816;2024-03-29T06:36:41;6.43;;;3.55;;
79566;SDS011;69030;48.126;7.816;2024-03-29T06:39:07;4.45;;;2.35;;
79566;SDS011;69030;48.126;7.816;2024-03-29T06:41:33;3.00;;;1.48;;
79566;SDS011;69030;48.126;7.816;2024-03-29T06:44:00;2.05;;;1.13;;
79566;SDS011;69030;48.126;7.816;2024-03-29T06:46:25;10.98;;;4.43;;
79566;SDS011;69030;48.126;7.816;2024-03-29T06:48:51;5.20;;;2.92;;
79566;SDS011;69030;48.126;7.816;2024-03-29T06:51:16;3.72;;;0.68;;
79566;SDS011;69030;48.126;7.816;2024-03-29T06:53:42;2.15;;;0.98;;
79566;SDS011;69030;48.126;7.816;2024-03-29T06:56:07;1.35;;;1.00;;
79566;SDS011;69030;48.126;7.816;2024-03-29T06:58:33;2.08;;;1.20;;
79566;SDS011;69030;48.126;7.816;2024-03-29T07:00:58;2.50;;;1.52;;
79566;SDS011;69030;48.126;7.816;2024-03-29T07:03:23;1.65;;;1.17;;
79566;SDS011;69030;48.126;7.816;2024-03-29T07:05:49;1.67;;;0.93;;
79566;SDS011;69030;48.126;7.816;2024-03-29T07:08:15;3.05;;;0.75;;
79566;SDS011;69030;48.126;7.816;2024-03-29T07:10:40;1.00;;;0.70;;
79566;SDS011;69030;48.126;7.816;2024-03-29T07:13:06;1.88;;;1.02;;
79566;SDS011;69030;48.126;7.816;2024-03-29T07:15:32;2.65;;;0.95;;
79566;SDS011;69030;48.126;7.816;2024-03-29T07:17:57;1.40;;;0.52;;
79566;SDS011;69030;48.126;7.816;2024-03-29T07:20:25;1.88;;;1.35;;
79566;SDS011;69030;48.126;7.816;2024-03-29T07:22:50;3.05;;;1.83;;
79566;SDS011;69030;48.126;7.816;2024-03-29T07:25:16;2.50;;;0.63;;
79566;SDS011;69030;48.126;7.816;2024-03-29T07:27:41;1.40;;;0.77;;
79566;SDS011;69030;48.126;7.816;2024-03-29T07:30:07;2.47;;;1.27;;
79566;SDS011;69030;48.126;7.816;2024-03-29T07:32:36;2.88;;;1.77;;
79566;SDS011;69030;48.126;7.816;2024-03-29T07:35:02;2.33;;;1.30;;
79566;SDS011;69030;48.126;7.816;2024-03-29T07:37:28;2.60;;;1.23;;
79566;SDS011;69030;48.126;7.816;2024-03-29T07:39:53;3.35;;;1.25;;
79566;SDS011;69030;48.126;7.816;2024-03-29T07:42:20;3.88;;;1.15;;
79566;SDS011;69030;48.126;7.816;2024-03-29T07:44:45;6.25;;;3.10;;
79566;SDS011;69030;48.126;7.816;2024-03-29T07:47:11;4.65;;;2.97;;
79566;SDS011;69030;48.126;7.816;2024-03-29T07:49:38;2.88;;;1.85;;
79566;SDS011;69030;48.126;7.816;2024-03-29T07:52:04;2.90;;;1.45;;
79566;SDS011;69030;48.126;7.816;2024-03-29T07:54:31;3.35;;;1.55;;
79566;SDS011;69030;48.126;7.816;2024-03-29T07:56:56;3.38;;;1.63;;
79566;SDS011;69030;48.126;7.816;2024-03-29T07:59:22;4.38;;;1.38;;
79566;SDS011;69030;48.126;7.816;2024-03-29T08:01:47;2.88;;;2.50;;
79566;SDS011;69030;48.126;7.816;2024-03-29T08:04:13;2.22;;;1.20;;
79566;SDS011;69030;48.126;7.816;2024-03-29T08:06:38;3.80;;;1.35;;
79566;SDS011;69030;48.126;7.816;2024-03-29T08:09:04;3.00;;;1.35;;
79566;SDS011;69030;48.126;7.816;2024-03-29T08:11:29;2.35;;;1.42;;
79566;SDS011;69030;48.126;7.816;2024-03-29T08:13:55;6.18;;;2.55;;
79566;SDS011;69030;48.126;7.816;2024-03-29T08:16:20;8.27;;;4.65;;
79566;SDS011;69030;48.126;7.816;2024-03-29T08:18:46;7.82;;;4.63;;
79566;SDS011;69030;48.126;7.816;2024-03-29T08:21:14;7.72;;;4.88;;
79566;SDS011;69030;48.126;7.816;2024-03-29T08:23:40;3.05;;;2.72;;
79566;SDS011;69030;48.126;7.816;2024-03-29T08:26:06;2.78;;;1.70;;
79566;SDS011;69030;48.126;7.816;2024-03-29T08:28:32;2.22;;;1.77;;
79566;SDS011;69030;48.126;7.816;2024-03-29T08:31:02;11.10;;;6.20;;
79566;SDS011;69030;48.126;7.816;2024-03-29T08:33:29;20.38;;;15.68;;
79566;SDS011;69030;48.126;7.816;2024-03-29T08:35:55;15.15;;;8.93;;
79566;SDS011;69030;48.126;7.816;2024-03-29T08:38:21;3.25;;;2.30;;
79566;SDS011;69030;48.126;7.816;2024-03-29T08:40:46;3.33;;;2.65;;
79566;SDS011;69030;48.126;7.816;2024-03-29T08:43:13;5.82;;;2.85;;
79566;SDS011;69030;48.126;7.816;2024-03-29T08:45:44;7.90;;;6.13;;
79566;SDS011;69030;48.126;7.816;2024-03-29T08:48:10;6.20;;;2.92;;
79566;SDS011;69030;48.126;7.816;2024-03-29T08:50:36;5.32;;;2.45;;
79566;SDS011;69030;48.126;7.816;2024-03-29T08:53:02;5.70;;;3.42;;
79566;SDS011;69030;48.126;7.816;2024-03-29T08:55:28;4.32;;;2.30;;
79566;SDS011;69030;48.126;7.816;2024-03-29T08:58:00;4.22;;;1.92;;
79566;SDS011;69030;48.126;7.816;2024-03-29T09:00:26;2.97;;;1.23;;
79566;SDS011;69030;48.126;7.816;2024-03-29T09:02:52;2.72;;;1.00;;
79566;SDS011;69030;48.126;7.816;2024-03-29T09:05:18;4.22;;;1.75;;
79566;SDS011;69030;48.126;7.816;2024-03-29T09:07:43;5.35;;;1.80;;
79566;SDS011;69030;48.126;7.816;2024-03-29T09:10:08;4.07;;;2.45;;
79566;SDS011;69030;48.126;7.816;2024-03-29T09:12:34;4.75;;;2.65;;
79566;SDS011;69030;48.126;7.816;2024-03-29T09:14:59;3.17;;;1.17;;
79566;SDS011;69030;48.126;7.816;2024-03-29T09:17:25;3.00;;;1.98;;
79566;SDS011;69030;48.126;7.816;2024-03-29T09:19:51;3.70;;;2.35;;
79566;SDS011;69030;48.126;7.816;2024-03-29T09:22:17;2.72;;;1.40;;
79566;SDS011;69030;48.126;7.816;2024-03-29T09:24:43;1.85;;;1.13;;
79566;SDS011;69030;48.126;7.816;2024-03-29T09:27:09;2.58;;;1.88;;
79566;SDS011;69030;48.126;7.816;2024-03-29T09:29:34;6.47;;;1.90;;
79566;SDS011;69030;48.126;7.816;2024-03-29T09:31:59;4.40;;;1.90;;
79566;SDS011;69030;48.126;7.816;2024-03-29T09:34:27;4.53;;;1.55;;
79566;SDS011;69030;48.126;7.816;2024-03-29T09:36:53;5.05;;;1.70;;
79566;SDS011;69030;48.126;7.816;2024-03-29T09:39:18;1.73;;;1.02;;
79566;SDS011;69030;48.126;7.816;2024-03-29T09:41:44;5.13;;;2.75;;
79566;SDS011;69030;48.126;7.816;2024-03-29T09:44:10;2.67;;;1.27;;
79566;SDS011;69030;48.126;7.816;2024-03-29T09:46:36;3.63;;;1.48;;
79566;SDS011;69030;48.126;7.816;2024-03-29T09:49:04;1.92;;;0.90;;
79566;SDS011;69030;48.126;7.816;2024-03-29T09:51:32;3.35;;;1.13;;
79566;SDS011;69030;48.126;7.816;2024-03-29T09:53:58;3.35;;;1.45;;
79566;SDS011;69030;48.126;7.816;2024-03-29T09:56:25;3.15;;;1.52;;
79566;SDS011;69030;48.126;7.816;2024-03-29T09:58:51;2.80;;;2.08;;
79566;SDS011;69030;48.126;7.816;2024-03-29T10:01:16;5.10;;;2.15;;
79566;SDS011;69030;48.126;7.816;2024-03-29T10:03:44;2.65;;;0.93;;
79566;SDS011;69030;48.126;7.816;2024-03-29T10:06:12;3.90;;;1.52;;
79566;SDS011;69030;48.126;7.816;2024-03-29T10:08:38;4.18;;;1.67;;
79566;SDS011;69030;48.126;7.816;2024-03-29T10:11:03;2.60;;;0.82;;
79566;SDS011;69030;48.126;7.816;2024-03-29T10:13:29;2.28;;;0.98;;
79566;SDS011;69030;48.126;7.816;2024-03-29T10:15:56;4.78;;;1.15;;
79566;SDS011;69030;48.126;7.816;2024-03-29T10:18:22;1.83;;;0.63;;
79566;SDS011;69030;48.126;7.816;2024-03-29T10:23:49;2.28;;;0.55;;
79566;SDS011;69030;48.126;7.816;2024-03-29T10:26:15;3.30;;;0.90;;
79566;SDS011;69030;48.126;7.816;2024-03-29T10:28:40;2.60;;;0.70;;
79566;SDS011;69030;48.126;7.816;2024-03-29T10:31:06;1.40;;;0.70;;
79566;SDS011;69030;48.126;7.816;2024-03-29T10:33:32;2.85;;;0.90;;
79566;SDS011;69030;48.126;7.816;2024-03-29T10:36:03;2.03;;;1.20;;
79566;SDS011;69030;48.126;7.816;2024-03-29T10:38:33;2.13;;;1.02;;
79566;SDS011;69030;48.126;7.816;2024-03-29T10:40:59;2.85;;;2.53;;
79566;SDS011;69030;48.126;7.816;2024-03-29T10:43:25;7.15;;;2.08;;
79566;SDS011;69030;48.126;7.816;2024-03-29T10:45:51;2.17;;;0.63;;
79566;SDS011;69030;48.126;7.816;2024-03-29T10:48:20;3.72;;;2.38;;
79566;SDS011;69030;48.126;7.816;2024-03-29T10:50:46;2.17;;;0.52;;
79566;SDS011;69030;48.126;7.816;2024-03-29T10:53:13;1.67;;;0.55;;
79566;SDS011;69030;48.126;7.816;2024-03-29T10:55:40;4.18;;;0.45;;
79566;SDS011;69030;48.126;7.816;2024-03-29T10:58:07;3.13;;;0.40;;
79566;SDS011;69030;48.126;7.816;2024-03-29T11:00:39;2.13;;;0.50;;
79566;SDS011;69030;48.126;7.816;2024-03-29T11:03:23;1.17;;;0.63;;
79566;SDS011;69030;48.126;7.816;2024-03-29T11:05:55;2.47;;;0.28;;
79566;SDS011;69030;48.126;7.816;2024-03-29T11:08:27;1.52;;;0.73;;
79566;SDS011;69030;48.126;7.816;2024-03-29T11:10:57;0.85;;;0.30;;
79566;SDS011;69030;48.126;7.816;2024-03-29T11:13:27;1.15;;;0.50;;
79566;SDS011;69030;48.126;7.816;2024-03-29T11:15:56;1.85;;;0.45;;
79566;SDS011;69030;48.126;7.816;2024-03-29T11:18:24;0.90;;;0.10;;
79566;SDS011;69030;48.126;7.816;2024-03-29T11:20:51;2.88;;;0.17;;
79566;SDS011;69030;48.126;7.816;2024-03-29T11:23:19;1.65;;;0.60;;
79566;SDS011;69030;48.126;7.816;2024-03-29T11:25:46;1.67;;;0.38;;
79566;SDS011;69030;48.126;7.816;2024-03-29T11:28:15;1.98;;;0.20;;
79566;SDS011;69030;48.126;7.816;2024-03-29T11:30:47;0.95;;;0.28;;
79566;SDS011;69030;48.126;7.816;2024-03-29T11:36:23;2.33;;;0.55;;
79566;SDS011;69030;48.126;7.816;2024-03-29T11:38:52;2.95;;;0.45;;
79566;SDS011;69030;48.126;7.816;2024-03-29T11:41:22;2.63;;;0.47;;
79566;SDS011;69030;48.126;7.816;2024-03-29T11:43:49;2.55;;;0.52;;
79566;SDS011;69030;48.126;7.816;2024-03-29T11:46:15;0.98;;;0.30;;
79566;SDS011;69030;48.126;7.816;2024-03-29T11:48:41;0.52;;;0.10;;
79566;SDS011;69030;48.126;7.816;2024-03-29T11:51:07;4.88;;;0.32;;
79566;SDS011;69030;48.126;7.816;2024-03-29T11:53:35;1.38;;;0.30;;
79566;SDS011;69030;48.126;7.816;2024-03-29T11:56:01;1.30;;;0.30;;
79566;SDS011;69030;48.126;7.816;2024-03-29T11:58:29;1.33;;;0.45;;
79566;SDS011;69030;48.126;7.816;2024-03-29T12:00:55;1.73;;;0.22;;
79566;SDS011;69030;48.126;7.816;2024-03-29T12:03:22;2.17;;;0.30;;
79566;SDS011;69030;48.126;7.816;2024-03-29T12:05:49;2.88;;;0.28;;
79566;SDS011;69030;48.126;7.816;2024-03-29T12:08:16;1.42;;;0.20;;
79566;SDS011;69030;48.126;7.816;2024-03-29T12:10:42;2.50;;;0.20;;
79566;SDS011;69030;48.126;7.816;2024-03-29T12:13:07;1.13;;;0.40;;
79566;SDS011;69030;48.126;7.816;2024-03-29T12:15:33;0.98;;;0.30;;
79566;SDS011;69030;48.126;7.816;2024-03-29T12:18:03;1.85;;;0.25;;
79566;SDS011;69030;48.126;7.816;2024-03-29T12:20:39;2.55;;;0.73;;
79566;SDS011;69030;48.126;7.816;2024-03-29T12:23:05;4.80;;;0.68;;
79566;SDS011;69030;48.126;7.816;2024-03-29T12:25:32;0.85;;;0.28;;
79566;SDS011;69030;48.126;7.816;2024-03-29T12:27:58;1.25;;;0.15;;
79566;SDS011;69030;48.126;7.816;2024-03-29T12:30:24;2.88;;;0.47;;
79566;SDS011;69030;48.126;7.816;2024-03-29T12:33:06;2.90;;;0.30;;
79566;SDS011;69030;48.126;7.816;2024-03-29T12:35:33;3.05;;;0.50;;
79566;SDS011;69030;48.126;7.816;2024-03-29T12:37:59;2.05;;;0.82;;
79566;SDS011;69030;48.126;7.816;2024-03-29T12:40:26;3.05;;;0.30;;
79566;SDS011;69030;48.126;7.816;2024-03-29T12:42:55;1.33;;;0.35;;
79566;SDS011;69030;48.126;7.816;2024-03-29T12:45:22;1.92;;;0.38;;
79566;SDS011;69030;48.126;7.816;2024-03-29T12:47:49;7.22;;;0.57;;
79566;SDS011;69030;48.126;7.816;2024-03-29T12:50:25;2.72;;;0.70;;
79566;SDS011;69030;48.126;7.816;2024-03-29T12:52:54;1.55;;;0.30;;
79566;SDS011;69030;48.126;7.816;2024-03-29T12:55:21;2.03;;;0.40;;
79566;SDS011;69030;48.126;7.816;2024-03-29T12:57:47;3.47;;;0.50;;
79566;SDS011;69030;48.126;7.816;2024-03-29T13:00:14;1.20;;;0.43;;
79566;SDS011;69030;48.126;7.816;2024-03-29T13:02:40;2.25;;;0.98;;
79566;SDS011;69030;48.126;7.816;2024-03-29T13:05:05;5.78;;;0.70;;
79566;SDS011;69030;48.126;7.816;2024-03-29T13:07:31;1.63;;;0.32;;
79566;SDS011;69030;48.126;7.816;2024-03-29T13:09:57;3.47;;;0.20;;
79566;SDS011;69030;48.126;7.816;2024-03-29T13:12:24;2.97;;;0.30;;
79566;SDS011;69030;48.126;7.816;2024-03-29T13:14:50;4.05;;;0.60;;
79566;SDS011;69030;48.126;7.816;2024-03-29T13:17:15;2.67;;;0.50;;
79566;SDS011;69030;48.126;7.816;2024-03-29T13:19:41;1.90;;;0.85;;
79566;SDS011;69030;48.126;7.816;2024-03-29T13:22:06;3.22;;;0.30;;
79566;SDS011;69030;48.126;7.816;2024-03-29T13:24:32;1.90;;;0.45;;
79566;SDS011;69030;48.126;7.816;2024-03-29T13:26:57;2.67;;;0.10;;
79566;SDS011;69030;48.126;7.816;2024-03-29T13:29:23;1.83;;;0.55;;
79566;SDS011;69030;48.126;7.816;2024-03-29T13:31:48;2.17;;;0.45;;
79566;SDS011;69030;48.126;7.816;2024-03-29T13:34:13;1.48;;;0.50;;
79566;SDS011;69030;48.126;7.816;2024-03-29T13:36:39;1.15;;;0.32;;
79566;SDS011;69030;48.126;7.816;2024-03-29T13:39:05;2.00;;;0.30;;
79566;SDS011;69030;48.126;7.816;2024-03-29T13:43:57;4.10;;;0.30;;
79566;SDS011;69030;48.126;7.816;2024-03-29T13:46:23;3.60;;;0.40;;
79566;SDS011;69030;48.126;7.816;2024-03-29T13:48:49;0.82;;;0.13;;
79566;SDS011;69030;48.126;7.816;2024-03-29T13:51:15;2.03;;;0.40;;
79566;SDS011;69030;48.126;7.816;2024-03-29T13:53:41;1.75;;;0.30;;
79566;SDS011;69030;48.126;7.816;2024-03-29T13:56:07;2.67;;;0.30;;
79566;SDS011;69030;48.126;7.816;2024-03-29T13:58:32;1.58;;;0.15;;
79566;SDS011;69030;48.126;7.816;2024-03-29T14:00:58;3.30;;;0.32;;
79566;SDS011;69030;48.126;7.816;2024-03-29T14:03:25;1.23;;;0.40;;
79566;SDS011;69030;48.126;7.816;2024-03-29T14:05:51;1.67;;;0.32;;
79566;SDS011;69030;48.126;7.816;2024-03-29T14:08:16;1.45;;;0.50;;
79566;SDS011;69030;48.126;7.816;2024-03-29T14:10:42;1.15;;;0.20;;
79566;SDS011;69030;48.126;7.816;2024-03-29T14:13:07;1.95;;;0.93;;
79566;SDS011;69030;48.126;7.816;2024-03-29T14:15:34;1.30;;;0.30;;
79566;SDS011;69030;48.126;7.816;2024-03-29T14:17:59;1.08;;;0.10;;
79566;SDS011;69030;48.126;7.816;2024-03-29T14:20:25;1.02;;;0.50;;
79566;SDS011;69030;48.126;7.816;2024-03-29T14:22:50;1.38;;;0.45;;
79566;SDS011;69030;48.126;7.816;2024-03-29T14:25:22;4.72;;;0.40;;
79566;SDS011;69030;48.126;7.816;2024-03-29T14:27:48;3.60;;;0.63;;
79566;SDS011;69030;48.126;7.816;2024-03-29T14:30:20;0.93;;;0.13;;
79566;SDS011;69030;48.126;7.816;2024-03-29T14:32:46;1.17;;;0.20;;
79566;SDS011;69030;48.126;7.816;2024-03-29T14:35:13;1.92;;;0.40;;
79566;SDS011;69030;48.126;7.816;2024-03-29T14:37:39;5.82;;;0.32;;
79566;SDS011;69030;48.126;7.816;2024-03-29T14:40:05;2.78;;;0.47;;
79566;SDS011;69030;48.126;7.816;2024-03-29T14:42:31;1.52;;;0.43;;
79566;SDS011;69030;48.126;7.816;2024-03-29T14:44:59;3.08;;;0.38;;
79566;SDS011;69030;48.126;7.816;2024-03-29T14:47:25;1.20;;;0.55;;
79566;SDS011;69030;48.126;7.816;2024-03-29T14:49:50;2.72;;;0.90;;
79566;SDS011;69030;48.126;7.816;2024-03-29T14:52:16;2.67;;;0.30;;
79566;SDS011;69030;48.126;7.816;2024-03-29T14:54:41;1.52;;;0.38;;
79566;SDS011;69030;48.126;7.816;2024-03-29T14:57:07;1.58;;;0.80;;